sensor_id;sensor_type;location;lat;lon;timestamp;temperature;humidity
19805;DHT22;10062;51.052;13.756;2022-12-07T00:02:23;3.40;63.40
19805;DHT22;10062;51.052;13.756;2022-12-07T00:04:54;3.40;59.10
19805;DHT22;10062;51.052;13.756;2022-12-07T00:07:26;3.40;62.40
19805;DHT22;10062;51.052;13.756;2022-12-07T00:09:58;3.30;46.20
19805;DHT22;10062;51.052;13.756;2022-12-07T00:12:30;3.40;46.60
19805;DHT22;10062;51.052;13.756;2022-12-07T00:15:02;3.40;47.80
19805;DHT22;10062;51.052;13.756;2022-12-07T00:17:35;3.40;46.30
19805;DHT22;10062;51.052;13.756;2022-12-07T00:20:08;3.30;38.00
19805;DHT22;10062;51.052;13.756;2022-12-07T00:22:39;3.30;47.40
19805;DHT22;10062;51.052;13.756;2022-12-07T00:25:11;3.30;44.10
19805;DHT22;10062;51.052;13.756;2022-12-07T00:27:43;3.30;42.40
19805;DHT22;10062;51.052;13.756;2022-12-07T00:30:15;3.30;47.50
19805;DHT22;10062;51.052;13.756;2022-12-07T00:32:48;3.30;49.40
19805;DHT22;10062;51.052;13.756;2022-12-07T00:35:20;3.30;41.90
19805;DHT22;10062;51.052;13.756;2022-12-07T00:37:52;3.20;35.90
19805;DHT22;10062;51.052;13.756;2022-12-07T00:40:24;3.30;30.70
19805;DHT22;10062;51.052;13.756;2022-12-07T00:42:55;3.30;22.80
19805;DHT22;10062;51.052;13.756;2022-12-07T00:45:27;3.30;19.20
19805;DHT22;10062;51.052;13.756;2022-12-07T00:48:00;3.20;19.60
19805;DHT22;10062;51.052;13.756;2022-12-07T00:50:32;3.20;20.40
19805;DHT22;10062;51.052;13.756;2022-12-07T00:53:04;3.30;24.40
19805;DHT22;10062;51.052;13.756;2022-12-07T00:55:36;3.30;21.70
19805;DHT22;10062;51.052;13.756;2022-12-07T00:58:08;3.30;20.90
19805;DHT22;10062;51.052;13.756;2022-12-07T01:00:42;3.30;16.00
19805;DHT22;10062;51.052;13.756;2022-12-07T01:03:16;3.30;9.20
19805;DHT22;10062;51.052;13.756;2022-12-07T01:05:52;3.30;16.70
19805;DHT22;10062;51.052;13.756;2022-12-07T01:08:26;3.30;22.00
19805;DHT22;10062;51.052;13.756;2022-12-07T01:10:59;3.30;22.80
19805;DHT22;10062;51.052;13.756;2022-12-07T01:13:31;3.30;15.90
19805;DHT22;10062;51.052;13.756;2022-12-07T01:16:05;3.30;26.10
19805;DHT22;10062;51.052;13.756;2022-12-07T01:18:39;3.30;21.80
19805;DHT22;10062;51.052;13.756;2022-12-07T01:21:12;3.40;15.70
19805;DHT22;10062;51.052;13.756;2022-12-07T01:23:45;3.30;2.90
19805;DHT22;10062;51.052;13.756;2022-12-07T01:26:18;3.30;1.00
19805;DHT22;10062;51.052;13.756;2022-12-07T01:28:51;3.40;11.10
19805;DHT22;10062;51.052;13.756;2022-12-07T01:31:26;3.50;1.00
19805;DHT22;10062;51.052;13.756;2022-12-07T01:34:00;3.40;1.00
19805;DHT22;10062;51.052;13.756;2022-12-07T01:36:33;3.40;6.70
19805;DHT22;10062;51.052;13.756;2022-12-07T01:39:07;3.40;22.40
19805;DHT22;10062;51.052;13.756;2022-12-07T01:41:40;3.30;19.40
19805;DHT22;10062;51.052;13.756;2022-12-07T01:44:21;3.30;7.50
19805;DHT22;10062;51.052;13.756;2022-12-07T01:46:54;3.30;12.40
19805;DHT22;10062;51.052;13.756;2022-12-07T01:49:32;3.50;14.90
19805;DHT22;10062;51.052;13.756;2022-12-07T01:52:10;3.30;9.80
19805;DHT22;10062;51.052;13.756;2022-12-07T01:54:46;3.30;17.10
19805;DHT22;10062;51.052;13.756;2022-12-07T01:57:19;3.30;15.90
19805;DHT22;10062;51.052;13.756;2022-12-07T01:59:53;3.30;18.40
19805;DHT22;10062;51.052;13.756;2022-12-07T02:02:28;3.30;15.40
19805;DHT22;10062;51.052;13.756;2022-12-07T02:05:05;3.30;15.50
19805;DHT22;10062;51.052;13.756;2022-12-07T02:07:38;3.30;17.90
19805;DHT22;10062;51.052;13.756;2022-12-07T02:10:14;3.20;23.70
19805;DHT22;10062;51.052;13.756;2022-12-07T02:12:49;3.30;40.80
19805;DHT22;10062;51.052;13.756;2022-12-07T02:15:24;3.30;44.60
19805;DHT22;10062;51.052;13.756;2022-12-07T02:18:03;3.30;37.60
19805;DHT22;10062;51.052;13.756;2022-12-07T02:20:41;3.20;27.10
19805;DHT22;10062;51.052;13.756;2022-12-07T02:23:40;3.30;29.50
19805;DHT22;10062;51.052;13.756;2022-12-07T02:26:45;3.30;22.30
19805;DHT22;10062;51.052;13.756;2022-12-07T02:29:25;3.20;19.10
19805;DHT22;10062;51.052;13.756;2022-12-07T02:32:03;3.10;9.90
19805;DHT22;10062;51.052;13.756;2022-12-07T02:34:44;3.10;14.40
19805;DHT22;10062;51.052;13.756;2022-12-07T02:37:29;3.10;9.70
19805;DHT22;10062;51.052;13.756;2022-12-07T02:40:09;3.00;12.40
19805;DHT22;10062;51.052;13.756;2022-12-07T02:42:44;2.90;18.10
19805;DHT22;10062;51.052;13.756;2022-12-07T02:45:21;2.80;9.50
19805;DHT22;10062;51.052;13.756;2022-12-07T02:47:56;2.90;13.20
19805;DHT22;10062;51.052;13.756;2022-12-07T02:50:30;2.80;9.00
19805;DHT22;10062;51.052;13.756;2022-12-07T02:53:02;2.80;19.90
19805;DHT22;10062;51.052;13.756;2022-12-07T02:55:38;2.80;24.40
19805;DHT22;10062;51.052;13.756;2022-12-07T02:58:23;2.80;23.60
19805;DHT22;10062;51.052;13.756;2022-12-07T03:01:07;2.70;30.80
19805;DHT22;10062;51.052;13.756;2022-12-07T03:03:44;2.70;25.30
19805;DHT22;10062;51.052;13.756;2022-12-07T03:06:22;2.70;34.40
19805;DHT22;10062;51.052;13.756;2022-12-07T03:09:06;2.80;24.70
19805;DHT22;10062;51.052;13.756;2022-12-07T03:11:45;2.80;20.60
19805;DHT22;10062;51.052;13.756;2022-12-07T03:14:23;2.80;28.70
19805;DHT22;10062;51.052;13.756;2022-12-07T03:17:00;2.80;24.00
19805;DHT22;10062;51.052;13.756;2022-12-07T03:19:35;2.80;19.50
19805;DHT22;10062;51.052;13.756;2022-12-07T03:22:09;2.80;23.30
19805;DHT22;10062;51.052;13.756;2022-12-07T03:24:44;2.80;15.80
19805;DHT22;10062;51.052;13.756;2022-12-07T03:27:20;2.80;4.80
19805;DHT22;10062;51.052;13.756;2022-12-07T03:29:55;2.90;1.00
19805;DHT22;10062;51.052;13.756;2022-12-07T03:32:32;2.90;1.00
19805;DHT22;10062;51.052;13.756;2022-12-07T03:35:09;2.80;1.00
19805;DHT22;10062;51.052;13.756;2022-12-07T03:37:46;2.70;1.60
19805;DHT22;10062;51.052;13.756;2022-12-07T03:40:23;2.70;8.80
19805;DHT22;10062;51.052;13.756;2022-12-07T03:42:57;2.60;13.50
19805;DHT22;10062;51.052;13.756;2022-12-07T03:45:38;2.60;18.40
19805;DHT22;10062;51.052;13.756;2022-12-07T03:48:20;2.60;16.40
19805;DHT22;10062;51.052;13.756;2022-12-07T03:50:59;2.60;18.70
19805;DHT22;10062;51.052;13.756;2022-12-07T03:53:36;2.60;9.40
19805;DHT22;10062;51.052;13.756;2022-12-07T03:56:10;2.60;2.70
19805;DHT22;10062;51.052;13.756;2022-12-07T03:58:43;2.60;2.40
19805;DHT22;10062;51.052;13.756;2022-12-07T04:01:15;2.60;1.00
19805;DHT22;10062;51.052;13.756;2022-12-07T04:03:50;2.60;3.50
19805;DHT22;10062;51.052;13.756;2022-12-07T04:06:22;2.60;1.00
19805;DHT22;10062;51.052;13.756;2022-12-07T04:08:54;2.70;1.00
19805;DHT22;10062;51.052;13.756;2022-12-07T04:11:25;2.70;1.00
19805;DHT22;10062;51.052;13.756;2022-12-07T04:13:57;2.60;1.00
19805;DHT22;10062;51.052;13.756;2022-12-07T04:16:47;2.60;1.00
19805;DHT22;10062;51.052;13.756;2022-12-07T04:19:22;2.60;1.00
19805;DHT22;10062;51.052;13.756;2022-12-07T04:21:55;2.70;1.00
19805;DHT22;10062;51.052;13.756;2022-12-07T04:24:27;2.70;1.00
19805;DHT22;10062;51.052;13.756;2022-12-07T04:26:59;2.80;1.00
19805;DHT22;10062;51.052;13.756;2022-12-07T04:29:31;2.60;1.00
19805;DHT22;10062;51.052;13.756;2022-12-07T04:32:03;2.60;1.00
19805;DHT22;10062;51.052;13.756;2022-12-07T04:34:36;2.60;1.00
19805;DHT22;10062;51.052;13.756;2022-12-07T04:37:08;2.60;1.00
19805;DHT22;10062;51.052;13.756;2022-12-07T04:39:40;2.60;1.00
19805;DHT22;10062;51.052;13.756;2022-12-07T04:42:14;2.50;1.00
19805;DHT22;10062;51.052;13.756;2022-12-07T04:44:46;2.40;1.00
19805;DHT22;10062;51.052;13.756;2022-12-07T04:47:17;2.40;1.00
19805;DHT22;10062;51.052;13.756;2022-12-07T04:49:51;2.40;1.00
19805;DHT22;10062;51.052;13.756;2022-12-07T04:52:22;2.40;1.00
19805;DHT22;10062;51.052;13.756;2022-12-07T04:54:54;2.20;1.00
19805;DHT22;10062;51.052;13.756;2022-12-07T04:57:26;2.10;1.00
19805;DHT22;10062;51.052;13.756;2022-12-07T04:59:58;2.10;1.00
19805;DHT22;10062;51.052;13.756;2022-12-07T05:02:29;2.10;1.00
19805;DHT22;10062;51.052;13.756;2022-12-07T05:05:03;2.10;1.00
19805;DHT22;10062;51.052;13.756;2022-12-07T05:07:35;2.10;1.00
19805;DHT22;10062;51.052;13.756;2022-12-07T05:10:08;2.10;1.00
19805;DHT22;10062;51.052;13.756;2022-12-07T05:12:40;2.00;1.00
19805;DHT22;10062;51.052;13.756;2022-12-07T05:15:12;2.00;1.00
19805;DHT22;10062;51.052;13.756;2022-12-07T05:17:44;2.00;1.00
19805;DHT22;10062;51.052;13.756;2022-12-07T05:20:17;2.00;1.00
19805;DHT22;10062;51.052;13.756;2022-12-07T05:22:49;1.90;1.00
19805;DHT22;10062;51.052;13.756;2022-12-07T05:25:21;1.90;1.00
19805;DHT22;10062;51.052;13.756;2022-12-07T05:27:54;1.90;1.00
19805;DHT22;10062;51.052;13.756;2022-12-07T05:30:26;1.90;1.00
19805;DHT22;10062;51.052;13.756;2022-12-07T05:32:58;1.90;1.00
19805;DHT22;10062;51.052;13.756;2022-12-07T05:35:31;1.90;1.00
19805;DHT22;10062;51.052;13.756;2022-12-07T05:38:03;1.90;1.00
19805;DHT22;10062;51.052;13.756;2022-12-07T05:40:36;2.00;1.10
19805;DHT22;10062;51.052;13.756;2022-12-07T05:43:08;2.10;1.00
19805;DHT22;10062;51.052;13.756;2022-12-07T05:45:40;2.10;1.00
19805;DHT22;10062;51.052;13.756;2022-12-07T05:48:12;2.10;1.00
19805;DHT22;10062;51.052;13.756;2022-12-07T05:50:47;2.10;1.00
19805;DHT22;10062;51.052;13.756;2022-12-07T05:53:19;2.20;1.00
19805;DHT22;10062;51.052;13.756;2022-12-07T05:55:52;2.20;1.00
19805;DHT22;10062;51.052;13.756;2022-12-07T05:58:24;2.20;1.00
19805;DHT22;10062;51.052;13.756;2022-12-07T06:01:15;2.30;1.00
19805;DHT22;10062;51.052;13.756;2022-12-07T06:03:47;2.30;1.00
19805;DHT22;10062;51.052;13.756;2022-12-07T06:06:20;2.30;1.00
19805;DHT22;10062;51.052;13.756;2022-12-07T06:08:52;2.40;1.00
19805;DHT22;10062;51.052;13.756;2022-12-07T06:11:24;2.50;1.00
19805;DHT22;10062;51.052;13.756;2022-12-07T06:14:14;2.50;1.00
19805;DHT22;10062;51.052;13.756;2022-12-07T06:16:45;2.60;1.00
19805;DHT22;10062;51.052;13.756;2022-12-07T06:19:17;2.70;1.00
19805;DHT22;10062;51.052;13.756;2022-12-07T06:21:51;2.70;1.00
19805;DHT22;10062;51.052;13.756;2022-12-07T06:24:23;2.80;1.00
19805;DHT22;10062;51.052;13.756;2022-12-07T06:26:55;2.90;1.00
19805;DHT22;10062;51.052;13.756;2022-12-07T06:29:27;2.90;1.00
19805;DHT22;10062;51.052;13.756;2022-12-07T06:31:59;3.00;1.00
19805;DHT22;10062;51.052;13.756;2022-12-07T06:34:30;2.90;1.00
19805;DHT22;10062;51.052;13.756;2022-12-07T06:37:04;3.00;1.00
19805;DHT22;10062;51.052;13.756;2022-12-07T06:39:35;3.00;1.00
19805;DHT22;10062;51.052;13.756;2022-12-07T06:42:07;3.00;1.00
19805;DHT22;10062;51.052;13.756;2022-12-07T06:44:39;3.10;1.00
19805;DHT22;10062;51.052;13.756;2022-12-07T06:47:11;3.70;1.00
19805;DHT22;10062;51.052;13.756;2022-12-07T06:49:43;3.20;1.00
19805;DHT22;10062;51.052;13.756;2022-12-07T06:52:16;3.20;1.00
19805;DHT22;10062;51.052;13.756;2022-12-07T06:54:48;3.20;1.00
19805;DHT22;10062;51.052;13.756;2022-12-07T06:57:19;3.20;1.00
19805;DHT22;10062;51.052;13.756;2022-12-07T06:59:51;3.20;1.00
19805;DHT22;10062;51.052;13.756;2022-12-07T07:02:23;3.20;1.00
19805;DHT22;10062;51.052;13.756;2022-12-07T07:04:55;3.20;1.00
19805;DHT22;10062;51.052;13.756;2022-12-07T07:07:28;3.30;1.00
19805;DHT22;10062;51.052;13.756;2022-12-07T07:10:00;3.20;1.00
19805;DHT22;10062;51.052;13.756;2022-12-07T07:12:32;3.20;1.00
19805;DHT22;10062;51.052;13.756;2022-12-07T07:15:05;3.10;9.50
19805;DHT22;10062;51.052;13.756;2022-12-07T07:17:36;3.10;19.00
19805;DHT22;10062;51.052;13.756;2022-12-07T07:20:09;3.10;28.80
19805;DHT22;10062;51.052;13.756;2022-12-07T07:22:43;3.10;46.60
19805;DHT22;10062;51.052;13.756;2022-12-07T07:25:15;3.00;46.60
19805;DHT22;10062;51.052;13.756;2022-12-07T07:27:47;3.00;62.20
19805;DHT22;10062;51.052;13.756;2022-12-07T07:30:19;2.90;70.50
19805;DHT22;10062;51.052;13.756;2022-12-07T07:32:51;2.90;87.70
19805;DHT22;10062;51.052;13.756;2022-12-07T07:35:22;2.90;90.30
19805;DHT22;10062;51.052;13.756;2022-12-07T07:37:56;2.90;92.20
19805;DHT22;10062;51.052;13.756;2022-12-07T07:40:28;2.90;96.90
19805;DHT22;10062;51.052;13.756;2022-12-07T07:43:00;2.90;99.90
19805;DHT22;10062;51.052;13.756;2022-12-07T07:45:32;2.90;99.90
19805;DHT22;10062;51.052;13.756;2022-12-07T07:48:04;2.90;99.90
19805;DHT22;10062;51.052;13.756;2022-12-07T07:50:36;2.90;95.10
19805;DHT22;10062;51.052;13.756;2022-12-07T07:53:09;3.00;97.20
19805;DHT22;10062;51.052;13.756;2022-12-07T07:55:41;3.00;93.90
19805;DHT22;10062;51.052;13.756;2022-12-07T07:58:12;3.00;92.60
19805;DHT22;10062;51.052;13.756;2022-12-07T08:00:44;3.20;86.80
19805;DHT22;10062;51.052;13.756;2022-12-07T08:03:16;3.10;72.90
19805;DHT22;10062;51.052;13.756;2022-12-07T08:05:48;3.20;77.50
19805;DHT22;10062;51.052;13.756;2022-12-07T08:08:22;3.20;69.00
19805;DHT22;10062;51.052;13.756;2022-12-07T08:10:54;3.30;65.10
19805;DHT22;10062;51.052;13.756;2022-12-07T08:13:26;3.30;55.00
19805;DHT22;10062;51.052;13.756;2022-12-07T08:15:58;3.30;63.30
19805;DHT22;10062;51.052;13.756;2022-12-07T08:18:35;3.30;42.40
19805;DHT22;10062;51.052;13.756;2022-12-07T08:21:09;3.40;44.60
19805;DHT22;10062;51.052;13.756;2022-12-07T08:23:43;3.50;38.80
19805;DHT22;10062;51.052;13.756;2022-12-07T08:26:16;3.60;28.00
19805;DHT22;10062;51.052;13.756;2022-12-07T08:28:48;3.70;24.00
19805;DHT22;10062;51.052;13.756;2022-12-07T08:31:20;3.70;8.50
19805;DHT22;10062;51.052;13.756;2022-12-07T08:33:52;3.80;1.00
19805;DHT22;10062;51.052;13.756;2022-12-07T08:36:24;3.90;1.00
19805;DHT22;10062;51.052;13.756;2022-12-07T08:38:57;3.90;1.00
19805;DHT22;10062;51.052;13.756;2022-12-07T08:41:29;3.90;1.00
19805;DHT22;10062;51.052;13.756;2022-12-07T08:44:01;4.00;1.00
19805;DHT22;10062;51.052;13.756;2022-12-07T08:46:37;3.90;1.00
19805;DHT22;10062;51.052;13.756;2022-12-07T08:49:13;4.00;1.00
19805;DHT22;10062;51.052;13.756;2022-12-07T08:51:46;4.10;1.00
19805;DHT22;10062;51.052;13.756;2022-12-07T08:54:19;4.30;1.00
19805;DHT22;10062;51.052;13.756;2022-12-07T08:56:51;4.40;1.00
19805;DHT22;10062;51.052;13.756;2022-12-07T08:59:25;4.70;1.00
19805;DHT22;10062;51.052;13.756;2022-12-07T09:01:57;4.80;1.00
19805;DHT22;10062;51.052;13.756;2022-12-07T09:04:29;4.70;1.00
19805;DHT22;10062;51.052;13.756;2022-12-07T09:07:01;4.70;1.00
19805;DHT22;10062;51.052;13.756;2022-12-07T09:09:35;4.90;1.00
19805;DHT22;10062;51.052;13.756;2022-12-07T09:12:07;4.90;1.00
19805;DHT22;10062;51.052;13.756;2022-12-07T09:14:40;4.80;1.00
19805;DHT22;10062;51.052;13.756;2022-12-07T09:17:13;4.70;1.00
19805;DHT22;10062;51.052;13.756;2022-12-07T09:19:45;4.80;1.00
19805;DHT22;10062;51.052;13.756;2022-12-07T09:22:16;4.70;1.00
19805;DHT22;10062;51.052;13.756;2022-12-07T09:24:49;4.80;1.00
19805;DHT22;10062;51.052;13.756;2022-12-07T09:27:21;4.90;1.00
19805;DHT22;10062;51.052;13.756;2022-12-07T09:29:53;5.20;1.00
19805;DHT22;10062;51.052;13.756;2022-12-07T09:32:25;5.50;1.00
19805;DHT22;10062;51.052;13.756;2022-12-07T09:34:57;5.60;1.00
19805;DHT22;10062;51.052;13.756;2022-12-07T09:37:29;5.40;1.00
19805;DHT22;10062;51.052;13.756;2022-12-07T09:40:05;5.30;1.00
19805;DHT22;10062;51.052;13.756;2022-12-07T09:42:39;5.40;1.00
19805;DHT22;10062;51.052;13.756;2022-12-07T09:45:17;5.40;1.00
19805;DHT22;10062;51.052;13.756;2022-12-07T09:47:50;5.30;1.00
19805;DHT22;10062;51.052;13.756;2022-12-07T09:50:24;5.20;1.00
19805;DHT22;10062;51.052;13.756;2022-12-07T09:53:07;5.30;1.00
19805;DHT22;10062;51.052;13.756;2022-12-07T09:55:41;5.50;1.00
19805;DHT22;10062;51.052;13.756;2022-12-07T09:58:20;5.90;1.00
19805;DHT22;10062;51.052;13.756;2022-12-07T10:00:55;6.40;99.90
19805;DHT22;10062;51.052;13.756;2022-12-07T10:03:28;7.10;1.00
19805;DHT22;10062;51.052;13.756;2022-12-07T10:06:00;7.10;99.90
19805;DHT22;10062;51.052;13.756;2022-12-07T10:08:32;7.10;30.50
19805;DHT22;10062;51.052;13.756;2022-12-07T10:11:05;7.10;1.00
19805;DHT22;10062;51.052;13.756;2022-12-07T10:13:42;7.30;1.00
19805;DHT22;10062;51.052;13.756;2022-12-07T10:16:35;7.40;1.00
19805;DHT22;10062;51.052;13.756;2022-12-07T10:19:19;7.50;1.00
19805;DHT22;10062;51.052;13.756;2022-12-07T10:22:09;7.70;1.00
19805;DHT22;10062;51.052;13.756;2022-12-07T10:24:42;7.80;1.00
19805;DHT22;10062;51.052;13.756;2022-12-07T10:27:31;7.80;1.00
19805;DHT22;10062;51.052;13.756;2022-12-07T10:30:07;7.80;1.00
19805;DHT22;10062;51.052;13.756;2022-12-07T10:32:40;8.10;99.90
19805;DHT22;10062;51.052;13.756;2022-12-07T10:35:22;8.10;99.90
19805;DHT22;10062;51.052;13.756;2022-12-07T10:37:55;7.90;1.00
19805;DHT22;10062;51.052;13.756;2022-12-07T10:40:32;7.60;99.90
19805;DHT22;10062;51.052;13.756;2022-12-07T10:43:18;7.20;1.00
19805;DHT22;10062;51.052;13.756;2022-12-07T10:46:13;6.90;1.00
19805;DHT22;10062;51.052;13.756;2022-12-07T10:48:56;6.80;1.00
19805;DHT22;10062;51.052;13.756;2022-12-07T10:51:37;6.60;1.00
19805;DHT22;10062;51.052;13.756;2022-12-07T10:54:21;6.40;1.00
19805;DHT22;10062;51.052;13.756;2022-12-07T10:57:05;6.30;1.00
19805;DHT22;10062;51.052;13.756;2022-12-07T10:59:55;6.30;99.90
19805;DHT22;10062;51.052;13.756;2022-12-07T11:02:49;6.20;99.90
19805;DHT22;10062;51.052;13.756;2022-12-07T11:05:27;6.10;99.90
19805;DHT22;10062;51.052;13.756;2022-12-07T11:08:04;6.00;1.00
19805;DHT22;10062;51.052;13.756;2022-12-07T11:10:41;6.00;1.00
19805;DHT22;10062;51.052;13.756;2022-12-07T11:13:28;5.90;1.00
19805;DHT22;10062;51.052;13.756;2022-12-07T11:16:09;5.90;1.00
19805;DHT22;10062;51.052;13.756;2022-12-07T11:18:58;6.00;1.00
19805;DHT22;10062;51.052;13.756;2022-12-07T11:21:37;6.00;1.00
19805;DHT22;10062;51.052;13.756;2022-12-07T11:24:15;5.90;1.00
19805;DHT22;10062;51.052;13.756;2022-12-07T11:27:01;6.00;1.00
19805;DHT22;10062;51.052;13.756;2022-12-07T11:29:52;5.90;1.00
19805;DHT22;10062;51.052;13.756;2022-12-07T11:35:35;5.80;1.00
19805;DHT22;10062;51.052;13.756;2022-12-07T11:38:12;5.70;1.00
19805;DHT22;10062;51.052;13.756;2022-12-07T11:40:49;5.60;1.00
19805;DHT22;10062;51.052;13.756;2022-12-07T11:43:24;5.40;1.00
19805;DHT22;10062;51.052;13.756;2022-12-07T11:46:02;5.30;1.00
19805;DHT22;10062;51.052;13.756;2022-12-07T11:48:39;5.30;1.00
19805;DHT22;10062;51.052;13.756;2022-12-07T11:51:12;5.10;1.00
19805;DHT22;10062;51.052;13.756;2022-12-07T11:53:48;5.10;1.00
19805;DHT22;10062;51.052;13.756;2022-12-07T11:56:22;5.10;1.00
19805;DHT22;10062;51.052;13.756;2022-12-07T11:59:01;5.00;1.00
19805;DHT22;10062;51.052;13.756;2022-12-07T12:01:48;5.00;1.00
19805;DHT22;10062;51.052;13.756;2022-12-07T12:04:37;5.00;1.00
19805;DHT22;10062;51.052;13.756;2022-12-07T12:07:15;5.00;1.00
19805;DHT22;10062;51.052;13.756;2022-12-07T12:09:51;5.10;1.00
19805;DHT22;10062;51.052;13.756;2022-12-07T12:12:40;5.30;1.00
19805;DHT22;10062;51.052;13.756;2022-12-07T12:15:27;5.40;1.00
19805;DHT22;10062;51.052;13.756;2022-12-07T12:18:26;5.50;1.00
19805;DHT22;10062;51.052;13.756;2022-12-07T12:21:07;5.80;1.00
19805;DHT22;10062;51.052;13.756;2022-12-07T12:23:42;5.90;1.00
19805;DHT22;10062;51.052;13.756;2022-12-07T12:26:18;5.90;1.00
19805;DHT22;10062;51.052;13.756;2022-12-07T12:28:53;6.00;1.00
19805;DHT22;10062;51.052;13.756;2022-12-07T12:31:33;5.90;1.00
19805;DHT22;10062;51.052;13.756;2022-12-07T12:34:33;5.80;1.00
19805;DHT22;10062;51.052;13.756;2022-12-07T12:37:44;5.50;1.00
19805;DHT22;10062;51.052;13.756;2022-12-07T12:40:42;5.50;1.00
19805;DHT22;10062;51.052;13.756;2022-12-07T12:43:47;5.50;1.00
19805;DHT22;10062;51.052;13.756;2022-12-07T12:46:48;5.40;1.00
19805;DHT22;10062;51.052;13.756;2022-12-07T12:49:38;5.20;1.00
19805;DHT22;10062;51.052;13.756;2022-12-07T12:58:46;5.00;1.00
19805;DHT22;10062;51.052;13.756;2022-12-07T13:01:40;5.10;1.00
19805;DHT22;10062;51.052;13.756;2022-12-07T13:04:40;4.80;1.00
19805;DHT22;10062;51.052;13.756;2022-12-07T13:07:49;4.70;1.00
19805;DHT22;10062;51.052;13.756;2022-12-07T13:13:33;4.20;7.30
19805;DHT22;10062;51.052;13.756;2022-12-07T13:16:39;4.20;20.20
19805;DHT22;10062;51.052;13.756;2022-12-07T13:22:39;4.10;37.40
19805;DHT22;10062;51.052;13.756;2022-12-07T13:25:19;4.10;26.10
19805;DHT22;10062;51.052;13.756;2022-12-07T13:27:59;4.00;38.20
19805;DHT22;10062;51.052;13.756;2022-12-07T13:30:32;4.00;36.20
19805;DHT22;10062;51.052;13.756;2022-12-07T13:33:14;4.00;32.30
19805;DHT22;10062;51.052;13.756;2022-12-07T13:35:53;3.90;37.10
19805;DHT22;10062;51.052;13.756;2022-12-07T13:38:29;3.90;38.60
19805;DHT22;10062;51.052;13.756;2022-12-07T13:41:04;3.80;54.30
19805;DHT22;10062;51.052;13.756;2022-12-07T13:43:43;3.80;53.40
19805;DHT22;10062;51.052;13.756;2022-12-07T13:46:15;3.70;66.10
19805;DHT22;10062;51.052;13.756;2022-12-07T13:48:50;3.80;88.90
19805;DHT22;10062;51.052;13.756;2022-12-07T13:51:23;3.80;92.10
19805;DHT22;10062;51.052;13.756;2022-12-07T13:54:00;3.90;92.10
19805;DHT22;10062;51.052;13.756;2022-12-07T13:56:33;3.90;90.50
19805;DHT22;10062;51.052;13.756;2022-12-07T13:59:12;3.90;93.30
19805;DHT22;10062;51.052;13.756;2022-12-07T14:01:46;3.90;91.20
19805;DHT22;10062;51.052;13.756;2022-12-07T14:04:34;4.00;94.70
19805;DHT22;10062;51.052;13.756;2022-12-07T14:07:21;4.00;87.40
19805;DHT22;10062;51.052;13.756;2022-12-07T14:10:00;4.00;94.30
19805;DHT22;10062;51.052;13.756;2022-12-07T14:12:35;4.00;95.50
19805;DHT22;10062;51.052;13.756;2022-12-07T14:15:20;4.10;97.10
19805;DHT22;10062;51.052;13.756;2022-12-07T14:17:55;4.20;99.90
19805;DHT22;10062;51.052;13.756;2022-12-07T14:20:33;4.20;91.90
19805;DHT22;10062;51.052;13.756;2022-12-07T14:23:21;4.30;85.40
19805;DHT22;10062;51.052;13.756;2022-12-07T14:25:53;4.30;88.80
19805;DHT22;10062;51.052;13.756;2022-12-07T14:28:27;4.30;70.30
19805;DHT22;10062;51.052;13.756;2022-12-07T14:31:00;4.40;75.40
19805;DHT22;10062;51.052;13.756;2022-12-07T14:33:32;4.40;66.50
19805;DHT22;10062;51.052;13.756;2022-12-07T14:36:07;4.30;72.00
19805;DHT22;10062;51.052;13.756;2022-12-07T14:38:40;4.40;80.60
19805;DHT22;10062;51.052;13.756;2022-12-07T14:41:14;4.40;66.80
19805;DHT22;10062;51.052;13.756;2022-12-07T14:44:08;4.40;78.60
19805;DHT22;10062;51.052;13.756;2022-12-07T14:46:40;4.50;60.10
19805;DHT22;10062;51.052;13.756;2022-12-07T14:49:12;4.40;66.50
19805;DHT22;10062;51.052;13.756;2022-12-07T14:51:46;4.40;76.20
19805;DHT22;10062;51.052;13.756;2022-12-07T14:54:20;4.50;63.60
19805;DHT22;10062;51.052;13.756;2022-12-07T14:56:54;4.40;49.40
19805;DHT22;10062;51.052;13.756;2022-12-07T14:59:26;4.30;56.00
19805;DHT22;10062;51.052;13.756;2022-12-07T15:01:58;4.30;70.40
19805;DHT22;10062;51.052;13.756;2022-12-07T15:04:30;4.30;58.00
19805;DHT22;10062;51.052;13.756;2022-12-07T15:07:04;4.30;49.10
19805;DHT22;10062;51.052;13.756;2022-12-07T15:09:37;4.30;42.00
19805;DHT22;10062;51.052;13.756;2022-12-07T15:12:08;4.30;50.30
19805;DHT22;10062;51.052;13.756;2022-12-07T15:14:40;4.30;46.80
19805;DHT22;10062;51.052;13.756;2022-12-07T15:17:12;4.30;34.40
19805;DHT22;10062;51.052;13.756;2022-12-07T15:19:44;4.30;30.20
19805;DHT22;10062;51.052;13.756;2022-12-07T15:22:17;4.20;39.60
19805;DHT22;10062;51.052;13.756;2022-12-07T15:24:49;4.20;18.50
19805;DHT22;10062;51.052;13.756;2022-12-07T15:27:20;4.20;15.60
19805;DHT22;10062;51.052;13.756;2022-12-07T15:29:52;4.30;1.00
19805;DHT22;10062;51.052;13.756;2022-12-07T15:32:24;4.30;1.00
19805;DHT22;10062;51.052;13.756;2022-12-07T15:34:56;4.30;1.00
19805;DHT22;10062;51.052;13.756;2022-12-07T15:37:29;4.30;1.00
19805;DHT22;10062;51.052;13.756;2022-12-07T15:40:00;4.40;1.00
19805;DHT22;10062;51.052;13.756;2022-12-07T15:42:32;4.40;1.00
19805;DHT22;10062;51.052;13.756;2022-12-07T15:45:05;4.40;1.00
19805;DHT22;10062;51.052;13.756;2022-12-07T15:47:38;4.40;1.00
19805;DHT22;10062;51.052;13.756;2022-12-07T15:50:13;4.40;1.00
19805;DHT22;10062;51.052;13.756;2022-12-07T15:52:46;4.40;1.00
19805;DHT22;10062;51.052;13.756;2022-12-07T15:55:18;4.50;1.00
19805;DHT22;10062;51.052;13.756;2022-12-07T15:57:50;4.40;1.00
19805;DHT22;10062;51.052;13.756;2022-12-07T16:00:22;4.40;1.00
19805;DHT22;10062;51.052;13.756;2022-12-07T16:02:53;4.40;1.00
19805;DHT22;10062;51.052;13.756;2022-12-07T16:05:25;4.40;1.00
19805;DHT22;10062;51.052;13.756;2022-12-07T16:07:58;4.40;1.00
19805;DHT22;10062;51.052;13.756;2022-12-07T16:10:30;4.40;1.00
19805;DHT22;10062;51.052;13.756;2022-12-07T16:13:02;4.40;1.00
19805;DHT22;10062;51.052;13.756;2022-12-07T16:15:37;4.30;1.00
19805;DHT22;10062;51.052;13.756;2022-12-07T16:18:09;4.30;1.00
19805;DHT22;10062;51.052;13.756;2022-12-07T16:20:41;4.30;1.00
19805;DHT22;10062;51.052;13.756;2022-12-07T16:23:14;4.30;1.00
19805;DHT22;10062;51.052;13.756;2022-12-07T16:25:46;4.30;1.00
19805;DHT22;10062;51.052;13.756;2022-12-07T16:28:18;4.30;1.00
19805;DHT22;10062;51.052;13.756;2022-12-07T16:31:00;4.30;1.00
19805;DHT22;10062;51.052;13.756;2022-12-07T16:33:33;4.20;1.00
19805;DHT22;10062;51.052;13.756;2022-12-07T16:36:07;4.30;1.00
19805;DHT22;10062;51.052;13.756;2022-12-07T16:38:40;4.30;1.00
19805;DHT22;10062;51.052;13.756;2022-12-07T16:41:12;4.20;1.00
19805;DHT22;10062;51.052;13.756;2022-12-07T16:43:44;4.10;1.00
19805;DHT22;10062;51.052;13.756;2022-12-07T16:46:16;4.10;1.00
19805;DHT22;10062;51.052;13.756;2022-12-07T16:48:48;4.20;1.00
19805;DHT22;10062;51.052;13.756;2022-12-07T16:51:19;4.10;1.00